Spring's Hourly Summary for Thursday, July 5, 2018
Hour Temp
(f)
RH
(%)
Solar Rad.
(MJ/m2)
Rainfall
(in)
Wind
(mph)
7/5/2018 12:00 AM 73 89 0 0 0.11
7/5/2018 1:00 AM 72 90 0 0 0.09
7/5/2018 2:00 AM 72 93 0 0 1.06
7/5/2018 3:00 AM 72 93 0 0 0.45
7/5/2018 4:00 AM 72 94 0 0 0.31
7/5/2018 5:00 AM 71 95 0 0 0.2
7/5/2018 6:00 AM 71 96 0 0 0.27
7/5/2018 7:00 AM 71 97 0.02 0 0.1
7/5/2018 8:00 AM 73 86 0.45 0 1
7/5/2018 9:00 AM 78 79 1.11 0 1.99
7/5/2018 10:00 AM 81 71 1.82 0 2.38
7/5/2018 11:00 AM 84 63 2.17 0 2.55
7/5/2018 12:00 PM 85 57 2.03 0 3.58
7/5/2018 1:00 PM 87 54 3.47 0 4.65
7/5/2018 2:00 PM 88 52 3.14 0 4.87
7/5/2018 3:00 PM 89 49 3.22 0 4.86
7/5/2018 4:00 PM 91 44 3.18 0 3.6
7/5/2018 5:00 PM 91 43 2.03 0 2.38
7/5/2018 6:00 PM 92 42 2.01 0 2.54
7/5/2018 7:00 PM 92 42 1.34 0 2.37
7/5/2018 8:00 PM 90 50 0.67 0 2.44
7/5/2018 9:00 PM 86 60 0.03 0 3.15
7/5/2018 10:00 PM 79 71 0 0 3.69
7/5/2018 11:00 PM 76 83 0 0.03 4.54
Data Summary 80 70 26.69 0.03 2.22